Time;durP1;ratioP1;P1;durP2;ratioP2;P2;SDS_P1;SDS_P2;PMS_P1;PMS_P2;Temp;Humidity;BMP_temperature;BMP_pressure;BME280_temperature;BME280_humidity;BME280_pressure;Samples;Min_cycle;Max_cycle;Signal;HPM_P1;HPM_P2
2022/01/02 00:01:35;;;;;;;;;;;6.80;99.90;;;6.21;100.00;101207.66;4947850;28;20311;-81
2022/01/02 00:04:06;;;;;;;;;;;6.70;99.90;;;6.22;100.00;101210.31;4932037;29;19934;-84
2022/01/02 00:06:40;;;;;;;;;;;6.70;99.90;;;6.26;100.00;101185.09;4916773;29;19961;-82
2022/01/02 00:09:07;;;;;;;;;;;6.70;99.90;;;6.19;100.00;101176.31;4931506;29;19930;-82
2022/01/02 00:11:37;;;;;;;;;;;8.60;99.90;;;6.19;100.00;101186.78;4931577;28;19931;-81
2022/01/02 00:14:07;;;;;;;;;;;6.60;99.90;;;6.20;100.00;101193.75;4946078;28;19937;-82
2022/01/02 00:16:36;;;;;;;;;;;6.60;99.90;;;6.14;100.00;101195.44;4963398;28;19936;-82
2022/01/02 00:19:16;;;;;;;;;;;6.70;99.90;;;6.10;100.00;101199.75;4947863;29;20444;-80
2022/01/02 00:21:45;;;;;;;;;;;8.60;99.90;;;6.16;100.00;101184.09;4931643;29;19942;-81
2022/01/02 00:24:17;;;;;;;;;;;8.20;99.90;;;6.17;100.00;101174.53;4946421;28;19948;-82
2022/01/02 00:26:46;;;;;;;;;;;6.60;99.90;;;6.14;100.00;101171.91;4947370;29;20010;-82
2022/01/02 00:29:13;;;;;;;;;;;6.60;99.90;;;6.13;100.00;101175.41;4931493;28;19938;-81
2022/01/02 00:31:41;;;;;;;;;;;8.00;99.90;;;6.10;100.00;101184.06;4946383;28;20059;-82
2022/01/02 00:34:08;;;;;;;;;;;6.60;99.90;;;6.04;100.00;101178.81;4945535;28;20390;-81
2022/01/02 00:36:36;;;;;;;;;;;9.30;99.90;;;5.90;100.00;101165.59;4931562;28;20337;-80
2022/01/02 00:39:04;;;;;;;;;;;3.90;99.90;;;5.99;100.00;101156.94;4931615;28;19931;-82
2022/01/02 00:41:38;;;;;;;;;;;6.50;99.90;;;5.94;100.00;101149.09;4930879;29;20024;-81
2022/01/02 00:44:11;;;;;;;;;;;6.40;99.90;;;5.94;100.00;101149.09;4945808;28;19931;-81
2022/01/02 00:47:12;;;;;;;;;;;6.40;99.90;;;5.88;100.00;101143.81;4950794;28;20021;-81
2022/01/02 00:49:40;;;;;;;;;;;6.40;99.90;;;5.93;100.00;101143.00;4933438;29;19961;-81
2022/01/02 00:52:12;;;;;;;;;;;7.30;99.90;;;5.95;100.00;101148.25;4915658;29;20608;-81
2022/01/02 00:54:43;;;;;;;;;;;7.30;99.90;;;6.00;100.00;101141.31;4930755;28;20395;-81
2022/01/02 00:57:17;;;;;;;;;;;6.40;99.90;;;6.05;100.00;101134.41;4930712;29;20000;-82
2022/01/02 01:00:00;;;;;;;;;;;6.40;99.90;;;6.02;100.00;101123.94;4946841;28;19930;-82
2022/01/02 01:02:33;;;;;;;;;;;6.40;99.90;;;5.96;100.00;101114.28;4932290;29;19933;-81
2022/01/02 01:05:05;;;;;;;;;;;8.30;99.90;;;6.02;100.00;101120.47;4930951;29;19938;-81
2022/01/02 01:07:33;;;;;;;;;;;6.40;99.90;;;6.04;100.00;101109.13;4914982;29;20303;-81
2022/01/02 01:10:03;;;;;;;;;;;6.50;99.90;;;6.14;100.00;101103.97;4930892;29;19934;-81
2022/01/02 01:12:30;;;;;;;;;;;8.40;99.90;;;6.27;100.00;101120.59;4930183;28;19936;-81
2022/01/02 01:14:57;;;;;;;;;;;6.60;99.90;;;6.25;100.00;101104.94;4946611;29;19935;-82
2022/01/02 01:17:25;;;;;;;;;;;6.90;99.90;;;6.31;100.00;101115.41;4930929;29;19930;-81
2022/01/02 01:19:55;;;;;;;;;;;7.20;99.90;;;6.34;100.00;101122.41;4914558;29;20409;-82
2022/01/02 01:22:22;;;;;;;;;;;8.40;99.90;;;6.32;100.00;101121.50;4914428;29;20591;-83
2022/01/02 01:24:49;;;;;;;;;;;5.20;99.90;;;6.34;100.00;101131.09;4914244;29;20045;-83
2022/01/02 01:27:17;;;;;;;;;;;6.60;99.90;;;6.17;100.00;101135.34;4945947;28;20342;-83
2022/01/02 01:29:44;;;;;;;;;;;7.00;99.90;;;6.19;100.00;101136.22;4930427;29;20293;-82
2022/01/02 01:32:11;;;;;;;;;;;9.90;99.90;;;6.14;100.00;101117.91;4930357;29;19966;-82
2022/01/02 01:34:38;;;;;;;;;;;6.80;99.90;;;6.20;100.00;101124.91;4944829;29;19972;-81
2022/01/02 01:37:06;;;;;;;;;;;9.30;99.90;;;6.09;100.00;101130.97;4946536;28;20413;-80
2022/01/02 01:39:36;;;;;;;;;;;7.30;99.90;;;6.08;100.00;101128.31;4930654;29;19930;-81
2022/01/02 01:42:09;;;;;;;;;;;7.00;99.90;;;6.06;100.00;101135.28;4930528;29;19930;-82
2022/01/02 01:47:20;;;;;;;;;;;6.80;99.90;;;6.06;100.00;101122.22;4931723;29;19934;-81
2022/01/02 01:49:47;;;;;;;;;;;6.50;99.90;;;6.04;100.00;101113.50;4929554;29;19937;-81
2022/01/02 01:52:15;;;;;;;;;;;6.60;99.90;;;6.12;100.00;101117.03;4913973;29;19930;-82
2022/01/02 01:54:43;;;;;;;;;;;6.90;99.90;;;6.09;100.00;101107.44;4913486;28;19930;-82
2022/01/02 01:57:10;;;;;;;;;;;6.70;99.90;;;6.15;100.00;101122.25;4929816;29;19930;-82
2022/01/02 01:59:38;;;;;;;;;;;7.00;99.90;;;6.16;100.00;101117.94;4914537;29;19941;-80
2022/01/02 02:02:06;;;;;;;;;;;9.40;99.90;;;6.15;100.00;101121.41;4929844;29;20075;-81
2022/01/02 02:04:33;;;;;;;;;;;7.30;99.90;;;6.16;100.00;101110.94;4913290;29;19938;-81
2022/01/02 02:07:00;;;;;;;;;;;6.60;99.90;;;6.15;100.00;101111.81;4926741;29;20625;-81
2022/01/02 02:09:35;;;;;;;;;;;6.50;99.90;;;6.09;100.00;101098.72;4911642;29;19931;-81
2022/01/02 02:12:02;;;;;;;;;;;9.30;99.90;;;6.13;100.00;101099.63;4896079;28;19949;-83
2022/01/02 02:14:36;;;;;;;;;;;6.60;99.90;;;6.16;100.00;101099.63;4910758;29;19962;-81
2022/01/02 02:17:03;;;;;;;;;;;8.60;99.90;;;6.15;100.00;101092.66;4911233;29;20584;-81
2022/01/02 02:19:30;;;;;;;;;;;6.50;99.90;;;6.15;100.00;101093.53;4895535;29;20442;-82
2022/01/02 02:21:59;;;;;;;;;;;7.60;99.90;;;6.08;100.00;101095.22;4911354;29;19934;-80
2022/01/02 02:24:26;;;;;;;;;;;7.30;99.90;;;6.21;100.00;101104.03;4909966;29;19935;-81
2022/01/02 02:26:54;;;;;;;;;;;6.60;99.90;;;6.22;100.00;101104.88;4910956;28;19930;-81
2022/01/02 02:29:21;;;;;;;;;;;6.80;99.90;;;6.26;100.00;101100.56;4910992;29;19930;-82
2022/01/02 02:31:48;;;;;;;;;;;7.80;99.90;;;6.21;100.00;101093.56;4911346;29;20042;-81
2022/01/02 02:34:15;;;;;;;;;;;4.50;99.90;;;6.21;100.00;101077.91;4910398;28;19937;-81
2022/01/02 02:36:42;;;;;;;;;;;9.10;99.90;;;6.29;100.00;101085.78;4895264;28;19931;-81
2022/01/02 02:39:09;;;;;;;;;;;6.70;99.90;;;6.29;100.00;101080.56;4910598;29;19930;-82
2022/01/02 02:41:38;;;;;;;;;;;6.50;99.90;;;6.35;100.00;101083.19;4910448;28;19927;-81
2022/01/02 02:44:32;;;;;;;;;;;7.10;99.90;;;6.38;100.00;101079.72;4909942;29;19980;-80
2022/01/02 02:49:46;;;;;;;;;;;6.30;99.90;;;6.36;100.00;101077.09;4913565;29;20383;-82
2022/01/02 02:52:32;;;;;;;;;;;7.60;99.90;;;6.34;100.00;101078.81;4910667;29;19939;-81
2022/01/02 02:55:01;;;;;;;;;;;8.40;99.90;;;6.35;100.00;101074.47;4900166;29;19940;-81
2022/01/02 02:57:35;;;;;;;;;;;7.90;99.90;;;6.37;100.00;101063.16;4902169;29;19931;-82
2022/01/02 03:00:02;;;;;;;;;;;6.80;99.90;;;6.31;100.00;101043.94;4917426;29;20017;-81
2022/01/02 03:02:31;;;;;;;;;;;6.80;99.90;;;6.31;100.00;101043.94;4916128;29;19931;-82
2022/01/02 03:04:58;;;;;;;;;;;6.70;99.90;;;6.28;100.00;101044.81;4900276;29;19934;-81
2022/01/02 03:07:25;;;;;;;;;;;7.00;99.90;;;6.29;100.00;101035.22;4916224;29;20695;-83
2022/01/02 03:09:57;;;;;;;;;;;6.90;99.90;;;6.33;100.00;101031.78;4916348;29;19958;-81
2022/01/02 03:12:24;;;;;;;;;;;9.30;99.90;;;6.27;100.00;101016.06;4945017;29;19980;-80
2022/01/02 03:14:54;;;;;;;;;;;7.40;99.90;;;6.33;100.00;101026.56;4934789;29;19930;-82
2022/01/02 03:17:21;;;;;;;;;;;8.70;99.90;;;6.35;100.00;101022.22;4919537;29;20697;-81
2022/01/02 03:19:48;;;;;;;;;;;7.60;99.90;;;6.39;100.00;101031.78;4918892;29;19965;-82
2022/01/02 03:22:19;;;;;;;;;;;9.40;99.90;;;6.43;100.00;101033.53;4920007;29;19957;-81
2022/01/02 03:24:49;;;;;;;;;;;6.90;99.90;;;6.39;100.00;101027.44;4934070;29;20548;-81
2022/01/02 03:27:19;;;;;;;;;;;8.90;99.90;;;6.37;100.00;101021.31;4920561;29;19931;-81
2022/01/02 03:29:48;;;;;;;;;;;6.70;99.90;;;6.38;100.00;101017.84;4919925;29;19934;-81
2022/01/02 03:32:19;;;;;;;;;;;9.60;99.90;;;6.33;100.00;101009.13;4934023;28;19980;-81
2022/01/02 03:34:47;;;;;;;;;;;8.20;99.90;;;6.44;100.00;101035.28;4918555;29;20017;-82
2022/01/02 03:37:15;;;;;;;;;;;8.50;99.90;;;6.43;100.00;101040.53;4934753;29;19930;-80
2022/01/02 03:39:42;;;;;;;;;;;8.60;99.90;;;6.44;100.00;101030.06;4935368;29;20041;-81
2022/01/02 03:42:10;;;;;;;;;;;6.80;99.90;;;6.47;100.00;101027.47;4919554;29;20303;-82
2022/01/02 03:44:37;;;;;;;;;;;6.70;99.90;;;6.40;100.00;101020.47;4918220;29;20026;-81
2022/01/02 03:47:06;;;;;;;;;;;8.80;99.90;;;6.43;100.00;101023.09;4934646;29;19953;-83
2022/01/02 03:49:37;;;;;;;;;;;7.00;99.90;;;6.27;100.00;101003.88;4935395;29;20536;-81
2022/01/02 03:52:08;;;;;;;;;;;5.60;99.90;;;6.32;100.00;101006.50;4935184;29;19931;-80
2022/01/02 03:54:35;;;;;;;;;;;7.80;99.90;;;6.26;100.00;100999.53;4918738;29;20288;-80
2022/01/02 03:57:02;;;;;;;;;;;7.00;99.90;;;6.31;100.00;100991.69;4919282;29;20311;-82
2022/01/02 03:59:30;;;;;;;;;;;6.70;99.90;;;6.26;100.00;100985.56;4935104;29;19980;-82
2022/01/02 04:01:58;;;;;;;;;;;8.80;99.90;;;6.28;100.00;100984.72;4919600;29;19930;-81
2022/01/02 04:04:26;;;;;;;;;;;7.60;99.90;;;6.30;100.00;100987.31;4961812;28;19995;-81
2022/01/02 04:06:54;;;;;;;;;;;8.50;99.90;;;6.31;100.00;100979.50;4964105;28;19929;-82
2022/01/02 04:09:21;;;;;;;;;;;7.00;99.90;;;6.26;100.00;100973.38;4935889;29;19930;-82
2022/01/02 04:11:48;;;;;;;;;;;6.90;99.90;;;6.30;100.00;100966.41;4918529;29;19933;-83
2022/01/02 04:14:18;;;;;;;;;;;7.40;99.90;;;6.31;100.00;100962.94;4917386;29;19930;-82
2022/01/02 04:16:45;;;;;;;;;;;8.50;99.90;;;6.31;100.00;100966.44;4934498;29;19941;-82
2022/01/02 04:19:13;;;;;;;;;;;6.80;99.90;;;6.28;100.00;100963.81;4949557;29;20397;-84
2022/01/02 04:21:43;;;;;;;;;;;9.30;99.90;;;6.38;100.00;100962.94;4949898;28;19965;-83
2022/01/02 04:24:10;;;;;;;;;;;6.80;99.90;;;6.39;100.00;100969.91;4932337;28;19935;-84
2022/01/02 04:26:40;;;;;;;;;;;9.20;99.90;;;6.43;100.00;100972.56;4949605;28;19977;-81
2022/01/02 04:29:07;;;;;;;;;;;6.80;99.90;;;6.39;100.00;100963.84;4949528;28;19931;-81
2022/01/02 04:31:34;;;;;;;;;;;9.20;99.90;;;6.45;100.00;100955.16;4933377;29;19930;-82
2022/01/02 04:34:01;;;;;;;;;;;7.80;99.90;;;6.44;100.00;100959.47;4932250;29;19952;-83
2022/01/02 04:36:28;;;;;;;;;;;9.70;99.90;;;6.47;100.00;100966.47;4949021;28;19937;-83
2022/01/02 04:38:55;;;;;;;;;;;7.30;99.90;;;6.46;100.00;100956.88;4948428;29;19942;-81
2022/01/02 04:41:23;;;;;;;;;;;6.80;99.90;;;6.48;100.00;100960.38;4933105;29;20390;-82
2022/01/02 04:43:51;;;;;;;;;;;8.90;99.90;;;6.50;100.00;100956.91;4935386;28;19965;-83
2022/01/02 04:46:18;;;;;;;;;;;7.30;99.90;;;6.48;100.00;100944.69;4952080;28;20461;-82
2022/01/02 04:48:46;;;;;;;;;;;7.80;99.90;;;6.45;100.00;100952.53;4936250;28;20456;-83
2022/01/02 04:51:14;;;;;;;;;;;4.60;99.90;;;6.47;100.00;100954.25;4935752;28;19930;-80
2022/01/02 04:53:47;;;;;;;;;;;8.70;99.90;;;6.47;100.00;100941.19;4935095;28;20311;-82
2022/01/02 04:56:16;;;;;;;;;;;6.50;99.90;;;6.38;100.00;100936.81;4936418;28;19930;-81
2022/01/02 04:58:43;;;;;;;;;;;9.50;99.90;;;6.49;100.00;100938.59;4951506;28;20410;-82
2022/01/02 05:01:14;;;;;;;;;;;7.30;99.90;;;6.45;100.00;100940.31;4964255;28;19988;-80
2022/01/02 05:03:42;;;;;;;;;;;6.90;99.90;;;6.43;100.00;100936.81;4949656;28;19949;-82
2022/01/02 05:06:11;;;;;;;;;;;7.60;99.90;;;6.37;100.00;100934.22;4935327;28;19976;-83
2022/01/02 05:08:43;;;;;;;;;;;7.40;99.90;;;6.36;100.00;100928.09;4935068;28;19930;-81
2022/01/02 05:11:13;;;;;;;;;;;6.70;99.90;;;6.38;100.00;100915.91;4936121;28;19942;-83
2022/01/02 05:13:41;;;;;;;;;;;6.80;99.90;;;6.36;100.00;100907.19;4934562;28;19940;-80
2022/01/02 05:16:08;;;;;;;;;;;8.60;99.90;;;6.39;100.00;100911.56;4934903;28;19960;-82
2022/01/02 05:18:36;;;;;;;;;;;7.20;99.90;;;6.44;100.00;100927.25;4933659;28;19930;-83
2022/01/02 05:21:03;;;;;;;;;;;8.80;99.90;;;6.44;100.00;100930.72;4950693;28;19938;-80
2022/01/02 05:23:30;;;;;;;;;;;6.80;99.90;;;6.42;100.00;100929.00;4949527;28;19944;-82
2022/01/02 05:25:57;;;;;;;;;;;9.10;99.90;;;6.42;100.00;100929.84;4950299;28;19926;-81
2022/01/02 05:28:24;;;;;;;;;;;7.70;99.90;;;6.42;100.00;100929.00;4933674;28;20351;-82
2022/01/02 05:30:52;;;;;;;;;;;8.40;99.90;;;6.42;100.00;100929.00;4949733;28;20268;-81
2022/01/02 05:33:19;;;;;;;;;;;6.80;99.90;;;6.42;100.00;100934.22;4933139;28;19930;-81
2022/01/02 05:35:48;;;;;;;;;;;6.70;99.90;;;6.42;100.00;100942.06;4934263;28;19930;-80
2022/01/02 05:38:16;;;;;;;;;;;7.30;99.90;;;6.37;100.00;100955.97;4933944;28;20312;-82
2022/01/02 05:40:43;;;;;;;;;;;8.60;99.90;;;6.41;100.00;100966.47;4934236;28;19938;-83
2022/01/02 05:43:11;;;;;;;;;;;8.50;99.90;;;6.44;100.00;100969.94;4948888;28;20036;-81
2022/01/02 05:45:38;;;;;;;;;;;6.60;99.90;;;6.44;100.00;100946.41;4949440;28;19930;-82
2022/01/02 05:48:06;;;;;;;;;;;6.70;99.90;;;6.41;100.00;100942.94;4933786;28;19996;-82
2022/01/02 05:50:34;;;;;;;;;;;6.70;99.90;;;6.39;100.00;100928.09;4949806;28;19977;-83
2022/01/02 05:53:01;;;;;;;;;;;8.60;99.90;;;6.39;100.00;100935.94;4949779;28;20025;-82
2022/01/02 05:55:28;;;;;;;;;;;6.80;99.90;;;6.32;100.00;100913.28;4950523;28;20376;-81
2022/01/02 05:57:55;;;;;;;;;;;6.90;99.90;;;6.37;100.00;100918.53;4949804;28;19936;-84
2022/01/02 06:00:22;;;;;;;;;;;7.30;99.90;;;6.32;100.00;100912.41;4934196;28;19961;-82
2022/01/02 06:02:58;;;;;;;;;;;9.00;99.90;;;6.39;100.00;100919.41;4935363;28;19930;-80
2022/01/02 06:05:25;;;;;;;;;;;7.20;99.90;;;6.38;100.00;100920.28;4933027;28;19937;-81
2022/01/02 06:07:52;;;;;;;;;;;9.40;99.90;;;6.36;100.00;100917.63;4948723;28;19930;-81
2022/01/02 06:10:19;;;;;;;;;;;7.80;99.90;;;6.38;100.00;100917.66;4933173;28;19938;-80
2022/01/02 06:12:47;;;;;;;;;;;8.20;99.90;;;6.37;100.00;100914.16;4948315;28;19937;-79
2022/01/02 06:15:14;;;;;;;;;;;8.30;99.90;;;6.38;100.00;100915.91;4948559;28;19930;-80
2022/01/02 06:17:41;;;;;;;;;;;8.80;99.90;;;6.38;100.00;100915.91;4949482;28;19970;-80
2022/01/02 06:20:08;;;;;;;;;;;8.20;99.90;;;6.38;100.00;100915.91;4948953;28;19983;-80
2022/01/02 06:22:36;;;;;;;;;;;7.20;99.90;;;6.37;100.00;100911.53;4948123;28;20033;-80
2022/01/02 06:25:03;;;;;;;;;;;8.90;99.90;;;6.36;100.00;100901.09;4948819;28;19934;-80
2022/01/02 06:27:30;;;;;;;;;;;7.20;99.90;;;6.35;100.00;100887.16;4948724;28;20080;-79
2022/01/02 06:29:57;;;;;;;;;;;7.30;99.90;;;6.35;100.00;100884.53;4949137;28;19956;-80
2022/01/02 06:32:24;;;;;;;;;;;9.20;99.90;;;6.37;100.00;100879.31;4948429;28;20410;-80
2022/01/02 06:34:51;;;;;;;;;;;5.50;99.90;;;6.35;100.00;100892.38;4948215;28;19930;-79
2022/01/02 06:37:20;;;;;;;;;;;7.40;99.90;;;6.41;100.00;100906.34;4949333;28;20888;-83
2022/01/02 06:39:47;;;;;;;;;;;8.00;99.90;;;6.39;100.00;100896.72;4949201;28;20100;-82
2022/01/02 06:42:14;;;;;;;;;;;9.00;99.90;;;6.36;100.00;100891.50;4948806;28;19937;-81
2022/01/02 06:44:41;;;;;;;;;;;6.80;99.90;;;6.38;100.00;100887.16;4948598;28;19938;-80
2022/01/02 06:47:08;;;;;;;;;;;6.80;99.90;;;6.37;100.00;100882.78;4944577;28;19931;-81
2022/01/02 06:49:36;;;;;;;;;;;7.60;99.90;;;6.38;100.00;100879.31;4913652;29;20450;-81
2022/01/02 06:52:04;;;;;;;;;;;6.60;99.90;;;6.44;100.00;100875.84;4929898;29;19938;-80
2022/01/02 06:54:31;;;;;;;;;;;6.80;99.90;;;6.45;100.00;100876.72;4913208;29;19931;-80
2022/01/02 06:57:00;;;;;;;;;;;8.10;99.90;;;6.46;100.00;100876.69;4929952;29;20648;-79
2022/01/02 06:59:27;;;;;;;;;;;6.80;99.90;;;6.46;100.00;100883.69;4914709;29;20468;-81
2022/01/02 07:01:55;;;;;;;;;;;8.50;99.90;;;6.38;100.00;100873.22;4930429;29;19970;-81
2022/01/02 07:04:22;;;;;;;;;;;9.40;99.90;;;6.44;100.00;100888.03;4928588;28;20057;-80
2022/01/02 07:06:49;;;;;;;;;;;8.80;99.90;;;6.37;100.00;100881.94;4930165;29;19931;-79
2022/01/02 07:09:21;;;;;;;;;;;7.80;99.90;;;6.37;100.00;100889.78;4915634;29;19992;-81
2022/01/02 07:11:48;;;;;;;;;;;9.10;99.90;;;6.38;100.00;100894.13;4945311;28;19937;-80
2022/01/02 07:14:14;;;;;;;;;;;7.80;99.90;;;6.36;100.00;100903.72;4928522;28;19937;-80
2022/01/02 07:16:41;;;;;;;;;;;8.20;99.90;;;6.33;100.00;100903.72;4945703;29;19934;-81
2022/01/02 07:19:08;;;;;;;;;;;6.70;99.90;;;6.31;100.00;100898.47;4913979;29;19931;-81
2022/01/02 07:21:35;;;;;;;;;;;9.80;99.90;;;6.26;100.00;100883.66;4946189;29;19966;-79
2022/01/02 07:24:02;;;;;;;;;;;6.60;99.90;;;6.27;100.00;100882.78;4928502;29;19930;-82
2022/01/02 07:26:29;;;;;;;;;;;6.80;99.90;;;6.27;100.00;100880.16;4929764;29;20500;-81
2022/01/02 07:28:56;;;;;;;;;;;6.60;99.90;;;6.18;100.00;100881.91;4914074;29;19967;-80
2022/01/02 07:31:24;;;;;;;;;;;9.00;99.90;;;6.21;100.00;100883.63;4944810;29;19931;-81
2022/01/02 07:33:51;;;;;;;;;;;6.70;99.90;;;6.23;100.00;100879.28;4928529;29;19934;-80
2022/01/02 07:36:18;;;;;;;;;;;8.70;99.90;;;6.20;100.00;100884.50;4933963;29;20037;-81
2022/01/02 07:38:44;;;;;;;;;;;6.60;99.90;;;6.21;100.00;100883.63;4929249;29;19936;-81
2022/01/02 07:41:11;;;;;;;;;;;6.50;99.90;;;6.20;100.00;100881.88;4944365;28;19937;-80
2022/01/02 07:43:38;;;;;;;;;;;7.70;99.90;;;6.20;100.00;100882.78;4914696;29;20021;-81
2022/01/02 07:46:06;;;;;;;;;;;7.10;99.90;;;6.17;100.00;100888.00;4931729;29;20561;-81
2022/01/02 07:48:33;;;;;;;;;;;6.80;99.90;;;6.20;100.00;100868.81;4931422;29;19957;-80
2022/01/02 07:51:00;;;;;;;;;;;9.40;99.90;;;6.20;100.00;100859.25;4931663;29;19937;-80
2022/01/02 07:53:26;;;;;;;;;;;6.60;99.90;;;6.20;100.00;100840.06;4914806;29;19930;-80
2022/01/02 07:55:53;;;;;;;;;;;7.90;99.90;;;6.20;100.00;100851.41;4931335;28;19927;-81
2022/01/02 07:58:20;;;;;;;;;;;7.00;99.90;;;6.23;100.00;100866.22;4931439;29;19956;-80
2022/01/02 08:00:48;;;;;;;;;;;7.90;99.90;;;6.27;100.00;100869.72;4931996;29;19930;-81
2022/01/02 08:03:15;;;;;;;;;;;6.60;99.90;;;6.24;100.00;100867.94;4930831;29;19937;-81
2022/01/02 08:05:42;;;;;;;;;;;6.50;99.90;;;6.32;100.00;100875.81;4931106;29;19931;-81
2022/01/02 08:08:09;;;;;;;;;;;6.70;99.90;;;6.36;100.00;100870.59;4930970;29;20482;-82
2022/01/02 08:10:38;;;;;;;;;;;6.80;99.90;;;6.44;100.00;100861.91;4947060;29;19930;-80
2022/01/02 08:13:05;;;;;;;;;;;7.90;99.90;;;6.42;100.00;100858.41;4945880;28;19931;-81
2022/01/02 08:15:32;;;;;;;;;;;6.90;99.90;;;6.47;100.00;100864.53;4930998;29;20338;-81
2022/01/02 08:17:59;;;;;;;;;;;6.90;99.90;;;6.47;100.00;100857.53;4946922;29;19984;-80
2022/01/02 08:20:29;;;;;;;;;;;8.30;99.90;;;6.49;100.00;100849.69;4931044;29;19937;-82
2022/01/02 08:22:56;;;;;;;;;;;9.00;99.90;;;6.57;100.00;100862.78;4930463;29;19962;-81
2022/01/02 08:25:26;;;;;;;;;;;9.20;99.90;;;6.58;100.00;100854.94;4930977;28;19930;-80
2022/01/02 08:27:53;;;;;;;;;;;7.60;99.90;;;6.57;100.00;100842.75;4930690;29;19946;-79
2022/01/02 08:30:19;;;;;;;;;;;9.20;99.90;;;6.65;100.00;100845.38;4930754;29;19937;-79
2022/01/02 08:32:46;;;;;;;;;;;7.60;99.90;;;6.74;100.00;100852.34;4929556;28;19935;-81
2022/01/02 08:35:13;;;;;;;;;;;7.10;99.90;;;6.73;100.00;100838.38;4930061;28;19937;-80
2022/01/02 08:37:41;;;;;;;;;;;7.40;99.90;;;6.79;100.00;100842.72;4930415;29;19941;-80
2022/01/02 08:40:09;;;;;;;;;;;7.20;99.90;;;6.83;100.00;100826.16;4931919;28;19953;-80
2022/01/02 08:42:35;;;;;;;;;;;7.40;99.90;;;6.84;100.00;100825.28;4932351;28;19965;-80
2022/01/02 08:45:03;;;;;;;;;;;8.70;99.90;;;6.90;100.00;100837.47;4935596;28;19930;-80
2022/01/02 08:47:33;;;;;;;;;;;7.20;99.90;;;6.95;100.00;100838.38;4950001;28;19937;-81
2022/01/02 08:50:00;;;;;;;;;;;7.70;99.90;;;6.88;100.00;100827.03;4949680;28;20266;-80
2022/01/02 08:52:27;;;;;;;;;;;8.50;99.90;;;7.00;100.00;100836.59;4932489;28;19934;-82
2022/01/02 08:54:54;;;;;;;;;;;8.40;99.90;;;7.01;100.00;100840.97;4948782;28;19927;-81
2022/01/02 08:57:20;;;;;;;;;;;10.60;99.90;;;7.05;100.00;100844.44;4949413;28;19934;-80
2022/01/02 08:59:47;;;;;;;;;;;9.40;99.90;;;7.08;100.00;100849.69;4949787;28;20707;-80
2022/01/02 09:02:20;;;;;;;;;;;7.30;99.90;;;7.07;100.00;100863.63;4950026;28;19934;-80
2022/01/02 09:04:47;;;;;;;;;;;7.50;99.90;;;7.06;100.00;100852.28;4933107;28;19926;-81
2022/01/02 09:07:14;;;;;;;;;;;7.50;99.90;;;7.04;100.00;100846.19;4949131;28;19930;-81
2022/01/02 09:09:41;;;;;;;;;;;10.10;99.90;;;7.15;100.00;100850.53;4949004;28;19966;-81
2022/01/02 09:12:12;;;;;;;;;;;7.60;99.90;;;7.14;100.00;100844.41;4959703;28;19922;-80
2022/01/02 09:14:39;;;;;;;;;;;7.50;99.90;;;7.17;100.00;100836.56;4974919;28;19914;-79
2022/01/02 09:17:06;;;;;;;;;;;7.50;99.90;;;7.18;100.00;100835.72;4965601;28;19969;-82
2022/01/02 09:19:33;;;;;;;;;;;10.00;99.90;;;7.12;100.00;100821.75;4939428;28;19930;-83
2022/01/02 09:22:00;;;;;;;;;;;8.90;99.90;;;7.19;100.00;100818.25;4943927;28;20313;-80
2022/01/02 09:24:28;;;;;;;;;;;8.20;99.90;;;7.24;100.00;100822.59;4939843;28;19926;-82
2022/01/02 09:26:54;;;;;;;;;;;7.60;99.90;;;7.33;100.00;100829.53;4937053;28;19930;-83
2022/01/02 09:29:24;;;;;;;;;;;8.50;99.90;;;7.34;100.00;100833.91;4936155;28;19938;-82
2022/01/02 09:31:52;;;;;;;;;;;9.70;99.90;;;7.37;100.00;100831.25;4935831;28;19926;-82
2022/01/02 09:34:19;;;;;;;;;;;7.80;99.90;;;7.32;100.00;100830.41;4949680;28;19993;-82
2022/01/02 09:36:46;;;;;;;;;;;8.10;99.90;;;7.38;100.00;100840.00;4950861;28;20454;-82
2022/01/02 09:39:13;;;;;;;;;;;5.60;99.90;;;7.42;100.00;100833.88;4952657;28;19989;-83
2022/01/02 09:41:40;;;;;;;;;;;9.00;99.90;;;7.49;100.00;100833.00;4968905;28;19930;-83
2022/01/02 09:44:07;;;;;;;;;;;8.50;99.90;;;7.55;100.00;100834.69;4934700;28;19930;-84
2022/01/02 09:46:34;;;;;;;;;;;11.00;99.90;;;7.60;100.00;100826.81;4969436;28;19930;-83
2022/01/02 09:49:03;;;;;;;;;;;7.90;99.90;;;7.57;100.00;100816.38;4951424;28;19926;-82
2022/01/02 09:51:30;;;;;;;;;;;8.10;99.90;;;7.60;100.00;100801.53;4936041;28;20310;-83
2022/01/02 09:53:57;;;;;;;;;;;7.70;99.90;;;7.64;100.00;100807.59;4967035;28;19930;-82
2022/01/02 09:56:24;;;;;;;;;;;8.00;99.90;;;7.73;100.00;100831.13;4951492;28;20049;-84
2022/01/02 09:58:51;;;;;;;;;;;8.50;99.90;;;7.81;100.00;100844.19;4951839;28;19934;-83
2022/01/02 10:01:21;;;;;;;;;;;8.10;99.90;;;7.80;100.00;100830.25;4950891;28;19961;-82
2022/01/02 10:03:50;;;;;;;;;;;8.40;99.90;;;7.78;100.00;100823.25;4934242;28;19934;-82
2022/01/02 10:06:18;;;;;;;;;;;8.20;99.90;;;7.80;100.00;100830.25;4950269;28;19976;-83
2022/01/02 10:08:46;;;;;;;;;;;10.30;99.90;;;7.88;100.00;100834.56;4950382;28;20579;-83
2022/01/02 10:11:25;;;;;;;;;;;7.80;99.90;;;7.94;100.00;100813.53;4930884;28;19931;-83
2022/01/02 10:13:52;;;;;;;;;;;8.30;99.90;;;8.05;100.00;100795.16;4961205;28;20025;-84
2022/01/02 10:16:33;;;;;;;;;;;8.40;99.90;;;8.12;100.00;100783.72;4946239;28;19937;-83
2022/01/02 10:19:21;;;;;;;;;;;8.50;99.90;;;8.19;100.00;100740.84;4931005;29;20016;-83
2022/01/02 10:21:54;;;;;;;;;;;8.40;99.90;;;8.29;100.00;100744.28;4915773;29;20003;-84
2022/01/02 10:24:27;;;;;;;;;;;8.60;99.90;;;8.35;100.00;100769.56;4930859;29;19965;-82
2022/01/02 10:27:08;;;;;;;;;;;8.70;99.90;;;8.45;100.00;100776.47;4931128;29;19937;-83
2022/01/02 10:29:45;;;;;;;;;;;10.10;99.90;;;8.53;100.00;100760.72;4946689;28;19931;-82
2022/01/02 10:32:37;;;;;;;;;;;8.60;99.90;;;8.75;100.00;100745.63;4915255;29;19958;-82
2022/01/02 10:35:08;;;;;;;;;;;11.30;99.90;;;8.87;100.00;100739.38;4927845;29;19989;-81
2022/01/02 10:37:36;;;;;;;;;;;9.20;99.90;;;8.87;100.00;100710.50;4927041;29;19970;-81
2022/01/02 10:40:04;;;;;;;;;;;10.40;99.90;;;9.00;100.00;100705.13;4896020;29;19931;-81
2022/01/02 10:42:39;;;;;;;;;;;9.50;99.90;;;9.14;100.00;100713.69;4911838;29;19938;-83
2022/01/02 10:45:09;;;;;;;;;;;9.40;99.90;;;9.21;100.00;100740.75;4913218;29;19931;-83
2022/01/02 10:47:43;;;;;;;;;;;9.60;99.90;;;9.26;100.00;100738.94;4928337;29;19977;-82
2022/01/02 10:50:30;;;;;;;;;;;9.60;99.90;;;9.30;100.00;100732.78;4914458;29;19970;-82
2022/01/02 10:52:57;;;;;;;;;;;9.60;99.90;;;9.32;100.00;100727.47;4910341;29;19933;-83
2022/01/02 10:55:27;;;;;;;;;;;9.80;99.90;;;9.35;100.00;100730.94;4910729;29;19931;-82
2022/01/02 10:57:57;;;;;;;;;;;9.60;99.90;;;9.31;100.00;100726.63;4910990;29;19939;-82
2022/01/02 11:00:27;;;;;;;;;;;9.70;99.90;;;9.44;100.00;100726.44;4910899;29;20314;-82
2022/01/02 11:02:54;;;;;;;;;;;7.10;99.90;;;9.46;100.00;100711.56;4909722;29;20018;-83
2022/01/02 11:05:24;;;;;;;;;;;9.80;99.90;;;9.55;100.00;100707.94;4910545;29;20391;-82
2022/01/02 11:07:55;;;;;;;;;;;9.90;99.90;;;9.60;100.00;100708.72;4912086;29;19931;-82
2022/01/02 11:10:24;;;;;;;;;;;9.90;99.90;;;9.59;100.00;100693.84;4899345;29;20042;-84
2022/01/02 11:12:52;;;;;;;;;;;11.70;99.90;;;9.68;100.00;100717.38;4910500;28;19974;-83
2022/01/02 11:15:24;;;;;;;;;;;10.10;99.90;;;9.67;100.00;100699.84;4911119;29;19961;-82
2022/01/02 11:17:52;;;;;;;;;;;10.00;99.90;;;9.74;100.00;100724.25;4898526;29;19977;-82
2022/01/02 11:20:25;;;;;;;;;;;12.20;99.90;;;9.78;100.00;100708.44;4898276;29;19962;-83
2022/01/02 11:22:54;;;;;;;;;;;10.20;99.90;;;9.84;100.00;100694.34;4913917;29;19937;-82
2022/01/02 11:25:56;;;;;;;;;;;10.20;99.90;;;10.09;100.00;100725.50;4913818;29;19931;-83
2022/01/02 11:28:35;;;;;;;;;;;10.40;99.90;;;10.18;100.00;100733.22;4929441;29;19933;-83
2022/01/02 11:31:04;;;;;;;;;;;10.40;99.90;;;10.27;100.00;100715.56;4929351;29;19937;-85